Time;durP1;ratioP1;P1;durP2;ratioP2;P2;SDS_P1;SDS_P2;PMS_P1;PMS_P2;Temp;Humidity;BMP_temperature;BMP_pressure;BME280_temperature;BME280_humidity;BME280_pressure;Samples;Min_cycle;Max_cycle;Signal;HPM_P1;HPM_P2
2022/12/17 13:06:05;;;;;;;8.70;6.10;;;;;;;13.04;35.88;101920.25;105826;1289;71184;-72
2022/12/17 13:08:32;;;;;;;8.90;6.80;;;;;;;12.88;35.91;101920.73;105683;1290;59687;-72
2022/12/17 13:11:10;;;;;;;8.90;6.50;;;;;;;12.84;36.39;101919.67;105773;1291;58962;-72
2022/12/17 13:13:54;;;;;;;8.40;6.70;;;;;;;12.98;36.14;101919.88;105639;1292;59823;-72
2022/12/17 13:16:35;;;;;;;9.60;6.50;;;;;;;13.30;36.94;101920.02;105777;1297;74720;-72
2022/12/17 13:19:20;;;;;;;8.80;6.60;;;;;;;13.56;34.59;101919.95;105869;1288;71139;-72
2022/12/17 13:21:47;;;;;;;9.70;6.90;;;;;;;13.73;34.11;101919.38;105793;1290;71209;-72
2022/12/17 13:24:24;;;;;;;9.80;7.20;;;;;;;13.96;34.19;101923.19;105651;1295;59175;-72
2022/12/17 13:26:51;;;;;;;9.30;7.30;;;;;;;14.12;33.98;101923.54;105801;1290;60364;-72
2022/12/17 13:29:32;;;;;;;10.00;7.00;;;;;;;14.32;34.21;101922.02;105669;1289;74519;-72
2022/12/17 13:32:22;;;;;;;10.20;7.00;;;;;;;14.56;33.31;101924.42;105696;1292;70163;-72
2022/12/17 13:35:15;;;;;;;9.60;6.90;;;;;;;14.44;33.23;101925.48;105711;1292;73381;-72
2022/12/17 13:38:00;;;;;;;9.40;7.00;;;;;;;14.23;33.56;101928.73;105627;1284;59461;-72
2022/12/17 13:40:40;;;;;;;10.70;7.80;;;;;;;14.30;34.25;101930.66;105635;1287;60074;-72
2022/12/17 13:43:22;;;;;;;10.00;7.20;;;;;;;14.38;33.97;101933.52;105824;1292;74112;-72
2022/12/17 13:45:51;;;;;;;10.50;7.50;;;;;;;14.26;33.54;101938.67;105617;1287;71705;-72
2022/12/17 13:48:23;;;;;;;9.80;7.30;;;;;;;14.18;34.12;101943.28;105786;1290;71439;-72
2022/12/17 13:51:19;;;;;;;10.10;7.50;;;;;;;14.15;33.30;101946.36;105732;1290;58979;-72
2022/12/17 13:54:00;;;;;;;9.40;7.40;;;;;;;14.16;33.90;101947.41;105782;1295;59807;-74
2022/12/17 13:56:30;;;;;;;8.70;7.30;;;;;;;14.21;34.13;101946.88;105716;1286;73201;-73
2022/12/17 13:59:01;;;;;;;11.00;7.90;;;;;;;14.20;33.78;101948.21;105678;1295;70832;-73
2022/12/17 14:01:52;;;;;;;9.60;7.20;;;;;;;14.21;33.33;101943.69;105707;1292;72757;-73
2022/12/17 14:04:28;;;;;;;12.90;7.60;;;;;;;14.32;32.84;101946.05;105683;1287;60282;-73
2022/12/17 14:06:58;;;;;;;10.50;7.50;;;;;;;14.53;32.42;101946.27;105811;1289;61681;-73
2022/12/17 14:09:35;;;;;;;11.40;7.30;;;;;;;14.75;32.81;101953.48;105776;1291;73092;-73
2022/12/17 14:12:22;;;;;;;11.80;7.40;;;;;;;14.96;32.47;101953.14;105704;1292;69571;-73
2022/12/17 14:15:19;;;;;;;10.00;7.00;;;;;;;15.00;32.06;101952.70;105546;1291;72746;-73
2022/12/17 14:17:48;;;;;;;10.20;7.10;;;;;;;14.97;31.97;101953.84;105542;1292;209135;-73
2022/12/17 14:20:18;;;;;;;8.80;6.70;;;;;;;14.84;31.97;101958.42;105677;1292;60160;-73
2022/12/17 14:22:59;;;;;;;10.30;6.60;;;;;;;14.59;31.98;101956.65;105684;1284;72165;-73
2022/12/17 14:25:31;;;;;;;10.40;6.90;;;;;;;14.39;32.52;101957.78;105630;1292;69793;-74
2022/12/17 14:28:00;;;;;;;10.50;7.40;;;;;;;14.26;32.39;101964.63;105547;1295;71370;-74
2022/12/17 14:30:34;;;;;;;9.20;7.20;;;;;;;14.02;32.48;101969.59;105620;1292;59628;-75
2022/12/17 14:33:01;;;;;;;11.60;7.50;;;;;;;13.52;32.30;101972.63;105736;1292;60678;-75
2022/12/17 14:35:30;;;;;;;11.50;7.10;;;;;;;13.19;32.79;101972.90;105760;1289;73277;-75
2022/12/17 14:37:57;;;;;;;12.90;8.00;;;;;;;13.00;33.27;101972.39;105686;1297;70305;-75
2022/12/17 14:40:24;;;;;;;13.70;8.30;;;;;;;12.72;33.18;101971.50;105809;1290;58992;-75
2022/12/17 14:42:57;;;;;;;11.50;7.40;;;;;;;12.37;33.34;101971.53;105631;1292;60309;-75
2022/12/17 14:45:26;;;;;;;12.60;7.70;;;;;;;11.93;33.82;101972.02;105709;1292;60671;-75
2022/12/17 14:48:03;;;;;;;11.40;7.20;;;;;;;11.49;34.32;101971.92;105699;1289;73230;-75
2022/12/17 14:50:33;;;;;;;15.10;8.70;;;;;;;10.75;34.61;101974.70;105682;1290;70222;-74
2022/12/17 14:53:22;;;;;;;14.30;8.90;;;;;;;9.50;35.41;101975.45;105623;1281;72940;-74
2022/12/17 14:55:54;;;;;;;13.60;8.90;;;;;;;8.24;37.02;101985.02;105571;1287;59868;-74
2022/12/17 14:58:23;;;;;;;14.00;8.80;;;;;;;7.28;38.58;101987.16;105698;1292;59383;-74
2022/12/17 15:00:55;;;;;;;14.50;8.70;;;;;;;6.43;39.95;101985.64;105604;1291;75634;-74
2022/12/17 15:03:26;;;;;;;14.60;8.70;;;;;;;5.70;41.18;101984.14;105688;1289;70162;-75
2022/12/17 15:06:04;;;;;;;13.60;8.50;;;;;;;4.96;42.27;101984.02;105666;1292;72767;-74
2022/12/17 15:08:43;;;;;;;13.20;8.10;;;;;;;4.30;43.85;101983.91;105622;1290;58935;-74
2022/12/17 15:11:12;;;;;;;14.50;8.40;;;;;;;3.72;45.08;101988.55;105788;1290;58930;-74
2022/12/17 15:13:39;;;;;;;16.20;8.70;;;;;;;3.26;46.38;101992.70;105618;1288;74451;-74
2022/12/17 15:16:06;;;;;;;14.10;8.80;;;;;;;2.81;47.30;101987.91;105553;1296;70864;-74
2022/12/17 15:18:33;;;;;;;16.50;9.10;;;;;;;2.42;48.72;101986.23;105756;1292;71474;-74
2022/12/17 15:21:01;;;;;;;18.60;9.20;;;;;;;2.01;49.71;101987.05;105768;1290;59050;-74
2022/12/17 15:23:29;;;;;;;19.70;11.10;;;;;;;1.65;50.69;101988.68;105692;1291;59459;-74
2022/12/17 15:25:55;;;;;;;25.60;13.30;;;;;;;1.34;51.94;101995.05;105715;1289;75685;-74
2022/12/17 15:28:26;;;;;;;30.80;16.20;;;;;;;1.05;53.00;101997.69;105745;1291;59021;-74
2022/12/17 15:30:52;;;;;;;44.40;23.50;;;;;;;0.77;53.80;101999.34;105723;1285;72880;-74
2022/12/17 15:33:19;;;;;;;49.40;27.80;;;;;;;0.53;54.76;101998.45;105641;1296;58996;-74
2022/12/17 15:35:46;;;;;;;29.00;15.80;;;;;;;0.29;55.26;101996.33;105737;1291;59032;-74
2022/12/17 15:38:12;;;;;;;30.00;16.80;;;;;;;0.09;56.07;101997.02;105637;1288;73756;-74
2022/12/17 15:40:39;;;;;;;36.40;20.00;;;;;;;-0.10;56.86;102008.15;105686;1292;59197;-74
2022/12/17 15:43:11;;;;;;;26.70;16.50;;;;;;;-0.26;57.55;102008.23;105643;1286;72968;-74
2022/12/17 15:45:43;;;;;;;23.10;13.40;;;;;;;-0.41;58.29;102011.55;105694;1292;61519;-74
2022/12/17 15:48:11;;;;;;;18.70;10.80;;;;;;;-0.55;58.89;102013.72;105647;1290;59244;-74
2022/12/17 15:50:38;;;;;;;24.90;14.10;;;;;;;-0.69;59.22;102014.56;105686;1291;73152;-74
2022/12/17 15:53:05;;;;;;;21.00;11.70;;;;;;;-0.83;59.75;102012.95;105610;1292;58952;-74
2022/12/17 15:55:31;;;;;;;21.90;12.70;;;;;;;-0.98;60.27;102006.62;105638;1299;70993;-74
2022/12/17 15:57:58;;;;;;;20.40;11.80;;;;;;;-1.14;60.79;102005.43;105751;1291;59289;-74
2022/12/17 16:00:24;;;;;;;17.90;11.10;;;;;;;-1.33;61.40;102008.67;105634;1290;58889;-74
2022/12/17 16:02:51;;;;;;;17.80;11.60;;;;;;;-1.52;62.67;102010.54;105623;1292;59396;-74
2022/12/17 16:05:19;;;;;;;17.80;10.90;;;;;;;-1.72;63.71;102008.77;105719;1284;70247;-74
2022/12/17 16:07:46;;;;;;;17.10;11.10;;;;;;;-1.88;64.31;102014.77;105621;1293;71526;-74
2022/12/17 16:10:13;;;;;;;19.30;12.70;;;;;;;-1.98;65.18;102015.73;105716;1285;59386;-74
2022/12/17 16:12:40;;;;;;;17.50;12.10;;;;;;;-2.07;65.57;102015.38;105638;1294;58946;-74
2022/12/17 16:15:08;;;;;;;21.70;12.40;;;;;;;-2.13;66.15;102014.73;105779;1289;74429;-74
2022/12/17 16:17:34;;;;;;;18.40;12.10;;;;;;;-2.19;66.65;102017.56;105647;1292;71331;-74
2022/12/17 16:20:02;;;;;;;24.00;15.30;;;;;;;-2.23;67.11;102021.91;105759;1284;75038;-74
2022/12/17 16:22:29;;;;;;;36.80;21.80;;;;;;;-2.27;67.86;102020.14;105702;1284;61747;-74
2022/12/17 16:24:55;;;;;;;91.90;44.60;;;;;;;-2.30;68.47;102023.02;105680;1291;59122;-74
2022/12/17 16:27:22;;;;;;;51.00;28.10;;;;;;;-2.37;68.67;102015.32;105787;1291;59252;-74
2022/12/17 16:29:48;;;;;;;40.10;24.30;;;;;;;-2.38;69.10;102021.79;105687;1289;71313;-74
2022/12/17 16:32:16;;;;;;;38.90;23.40;;;;;;;-2.42;69.50;102020.55;105832;1290;59426;-74
2022/12/17 16:34:43;;;;;;;35.00;20.10;;;;;;;-2.48;69.53;102020.92;105646;1287;60420;-74
2022/12/17 16:37:10;;;;;;;32.10;19.50;;;;;;;-2.52;70.06;102023.17;105723;1285;59356;-74
2022/12/17 16:39:36;;;;;;;30.50;18.30;;;;;;;-2.55;70.36;102028.45;105701;1290;74457;-74
2022/12/17 16:42:03;;;;;;;30.40;18.40;;;;;;;-2.59;70.86;102027.92;105780;1284;68580;-74
2022/12/17 16:44:29;;;;;;;29.30;18.30;;;;;;;-2.63;71.02;102029.47;105784;1290;73104;-74
2022/12/17 16:46:56;;;;;;;28.90;19.70;;;;;;;-2.66;71.12;102034.10;105549;1290;58768;-74
2022/12/17 16:49:25;;;;;;;31.90;21.10;;;;;;;-2.70;71.43;102033.35;105734;1294;58940;-74
2022/12/17 16:51:53;;;;;;;37.00;23.20;;;;;;;-2.74;71.32;102039.58;105771;1292;73649;-74
2022/12/17 16:54:24;;;;;;;35.70;22.10;;;;;;;-2.79;71.69;102044.79;105642;1295;69844;-74
2022/12/17 16:56:52;;;;;;;35.80;21.80;;;;;;;-2.85;72.02;102045.33;105609;1291;71386;-74
2022/12/17 16:59:18;;;;;;;30.10;19.50;;;;;;;-2.90;72.29;102040.15;105722;1292;61268;-74
2022/12/17 17:01:47;;;;;;;32.30;20.30;;;;;;;-2.96;72.63;102041.55;105657;1293;58964;-74
2022/12/17 17:04:16;;;;;;;31.80;19.90;;;;;;;-3.02;72.57;102045.91;105658;1290;73533;-74
2022/12/17 17:06:48;;;;;;;31.30;19.30;;;;;;;-3.09;72.96;102044.95;105804;1290;69545;-74
2022/12/17 17:09:15;;;;;;;33.40;19.70;;;;;;;-3.15;73.20;102044.13;105764;1289;70750;-74
2022/12/17 17:11:42;;;;;;;30.50;19.70;;;;;;;-3.21;73.25;102045.39;105669;1292;60767;-74
2022/12/17 17:14:16;;;;;;;33.50;20.60;;;;;;;-3.26;73.52;102048.69;105653;1286;59590;-74
2022/12/17 17:16:42;;;;;;;30.50;18.70;;;;;;;-3.30;73.74;102052.08;105713;1286;75912;-74
2022/12/17 17:19:09;;;;;;;30.60;19.00;;;;;;;-3.34;74.02;102053.77;105783;1290;58867;-74
2022/12/17 17:21:38;;;;;;;33.80;21.40;;;;;;;-3.37;74.18;102055.61;105791;1290;59120;-74
2022/12/17 17:24:10;;;;;;;29.00;19.20;;;;;;;-3.41;74.55;102057.83;105653;1291;61866;-74
2022/12/17 17:26:46;;;;;;;29.50;18.00;;;;;;;-3.45;74.64;102056.77;105791;1290;59612;-74
2022/12/17 17:29:13;;;;;;;29.60;18.70;;;;;;;-3.52;74.58;102063.36;105484;1290;74797;-74
2022/12/17 17:31:39;;;;;;;32.70;18.70;;;;;;;-3.58;74.82;102069.45;105695;1285;71419;-74
2022/12/17 17:34:26;;;;;;;29.90;20.60;;;;;;;-3.63;75.05;102070.48;105685;1290;72810;-74
2022/12/17 17:36:52;;;;;;;30.30;20.50;;;;;;;-3.67;75.48;102072.19;105768;1290;59248;-74
2022/12/17 17:39:19;;;;;;;30.70;19.50;;;;;;;-3.71;75.65;102075.92;105748;1283;59024;-74
2022/12/17 17:41:45;;;;;;;26.40;17.50;;;;;;;-3.76;75.52;102074.85;105660;1290;59256;-74
2022/12/17 17:44:12;;;;;;;28.70;17.80;;;;;;;-3.83;75.59;102074.75;105675;1290;59482;-74
2022/12/17 17:46:39;;;;;;;29.40;16.70;;;;;;;-3.92;75.68;102075.73;105775;1291;71495;-74
2022/12/17 17:49:07;;;;;;;28.90;16.80;;;;;;;-3.98;76.00;102073.14;105755;1285;60029;-74
2022/12/17 17:51:36;;;;;;;26.70;16.40;;;;;;;-4.04;76.40;102074.00;105746;1291;60574;-74
2022/12/17 17:54:23;;;;;;;24.10;16.40;;;;;;;-4.07;76.83;102081.71;105654;1285;73253;-74
2022/12/17 17:56:49;;;;;;;24.90;16.60;;;;;;;-4.10;76.75;102086.45;105645;1294;59078;-74
2022/12/17 17:59:18;;;;;;;28.60;16.50;;;;;;;-4.12;77.15;102094.46;105660;1286;58905;-74
2022/12/17 18:01:49;;;;;;;25.30;17.00;;;;;;;-4.11;77.28;102096.34;105663;1291;60710;-74
2022/12/17 18:04:19;;;;;;;28.70;17.50;;;;;;;-4.12;77.59;102101.89;105651;1285;59567;-74
2022/12/17 18:06:47;;;;;;;26.80;17.00;;;;;;;-4.13;77.61;102098.27;105647;1284;75041;-74
2022/12/17 18:09:33;;;;;;;27.30;17.00;;;;;;;-4.13;77.53;102095.52;105635;1292;71624;-74
2022/12/17 18:13:53;;;;;;;26.70;16.70;;;;;;;-4.15;77.39;102092.12;105774;1289;58904;-74
2022/12/17 18:14:48;;;;;;;26.60;16.00;;;;;;;-4.18;77.24;102097.05;105698;1291;59821;-74
2022/12/17 18:17:34;;;;;;;24.10;15.70;;;;;;;-4.23;77.41;102101.20;105736;1291;59538;-74
2022/12/17 18:20:01;;;;;;;28.50;15.70;;;;;;;-4.27;77.26;102105.95;105671;1289;59580;-75
2022/12/17 18:22:28;;;;;;;23.00;13.90;;;;;;;-4.32;77.29;102102.98;105714;1291;69532;-75
2022/12/17 18:24:54;;;;;;;26.20;15.10;;;;;;;-4.35;77.42;102104.64;105530;1295;71518;-75
2022/12/17 18:27:21;;;;;;;23.90;14.60;;;;;;;-4.38;77.53;102105.91;105591;1290;59131;-75
2022/12/17 18:29:47;;;;;;;22.40;13.50;;;;;;;-4.41;77.33;102105.31;105812;1289;59319;-75
2022/12/17 18:32:13;;;;;;;23.60;14.00;;;;;;;-4.43;77.32;102106.59;105809;1283;59740;-75
2022/12/17 18:34:40;;;;;;;25.40;14.60;;;;;;;-4.44;77.29;102113.87;105721;1286;59650;-75
2022/12/17 18:37:07;;;;;;;22.00;13.20;;;;;;;-4.47;77.19;102110.67;105694;1288;59347;-75
2022/12/17 18:39:33;;;;;;;22.90;13.30;;;;;;;-4.49;77.28;102115.05;105674;1286;59333;-75
2022/12/17 18:44:44;;;;;;;24.00;15.20;;;;;;;-4.54;77.19;102116.54;105686;1290;75147;-75
2022/12/17 18:47:11;;;;;;;24.70;15.30;;;;;;;-4.54;77.31;102122.27;105766;1290;58939;-75
2022/12/17 18:49:38;;;;;;;24.30;14.70;;;;;;;-4.55;77.27;102124.02;105595;1290;72715;-75
2022/12/17 18:52:04;;;;;;;27.00;15.60;;;;;;;-4.54;77.28;102130.73;105742;1290;59509;-75
2022/12/17 18:54:34;;;;;;;22.00;13.90;;;;;;;-4.56;77.28;102131.47;105807;1290;59434;-75
2022/12/17 18:57:01;;;;;;;23.50;13.60;;;;;;;-4.57;77.11;102135.83;105783;1284;59322;-75
2022/12/17 18:59:29;;;;;;;22.40;13.60;;;;;;;-4.60;77.30;102134.69;105781;1289;69049;-75
2022/12/17 19:01:56;;;;;;;20.40;13.20;;;;;;;-4.63;77.19;102135.80;105789;1291;72399;-75
2022/12/17 19:04:24;;;;;;;27.30;13.10;;;;;;;-4.65;77.37;102138.80;105764;1291;60742;-75
2022/12/17 19:06:52;;;;;;;22.50;14.10;;;;;;;-4.66;77.47;102136.94;105603;1286;59021;-75
2022/12/17 19:09:33;;;;;;;25.30;13.90;;;;;;;-4.68;77.38;102135.07;105732;1290;73127;-75
2022/12/17 19:12:00;;;;;;;21.80;13.00;;;;;;;-4.69;77.22;102144.77;105684;1286;69544;-76
2022/12/17 19:14:27;;;;;;;21.70;12.60;;;;;;;-4.70;77.24;102150.33;105521;1294;72172;-75
2022/12/17 19:16:56;;;;;;;19.50;12.30;;;;;;;-4.72;77.26;102147.77;105720;1291;62841;-75
2022/12/17 19:19:23;;;;;;;22.50;13.10;;;;;;;-4.75;76.99;102152.34;105660;1291;59979;-75
2022/12/17 19:21:53;;;;;;;21.80;11.90;;;;;;;-4.79;76.85;102151.59;105606;1290;73097;-75
2022/12/17 19:24:20;;;;;;;22.30;12.20;;;;;;;-4.83;77.04;102152.21;105775;1283;71018;-75
2022/12/17 19:26:48;;;;;;;20.60;12.00;;;;;;;-4.87;76.87;102151.63;105681;1283;72582;-75
2022/12/17 19:29:16;;;;;;;22.80;13.70;;;;;;;-4.89;76.90;102151.02;105656;1283;62686;-76
2022/12/17 19:31:44;;;;;;;21.40;12.30;;;;;;;-4.93;77.06;102148.66;105576;1293;59017;-75
2022/12/17 19:34:14;;;;;;;21.30;12.60;;;;;;;-4.98;76.82;102149.48;105733;1291;74815;-75
2022/12/17 19:36:41;;;;;;;20.40;12.10;;;;;;;-5.05;76.81;102151.56;105683;1292;71760;-75
2022/12/17 19:39:11;;;;;;;22.80;13.40;;;;;;;-5.11;76.79;102151.89;105589;1294;71737;-75
2022/12/17 19:41:38;;;;;;;21.40;12.40;;;;;;;-5.18;76.83;102155.34;105639;1284;60422;-75
2022/12/17 19:44:07;;;;;;;19.80;12.20;;;;;;;-5.23;77.03;102154.60;105704;1286;60310;-75
2022/12/17 19:46:34;;;;;;;23.20;12.50;;;;;;;-5.28;77.17;102152.83;105561;1293;74750;-75
2022/12/17 19:49:02;;;;;;;21.50;13.40;;;;;;;-5.32;77.36;102153.09;105718;1286;70723;-76
2022/12/17 19:51:30;;;;;;;20.10;12.10;;;;;;;-5.35;77.40;102156.45;105610;1293;70633;-76
2022/12/17 19:53:57;;;;;;;22.70;13.60;;;;;;;-5.38;77.40;102157.20;105796;1291;60454;-76
2022/12/17 19:56:33;;;;;;;23.70;14.10;;;;;;;-5.40;77.76;102158.98;105598;1283;61400;-75
2022/12/17 19:59:02;;;;;;;23.50;13.80;;;;;;;-5.42;77.47;102161.45;105684;1291;72669;-75
2022/12/17 20:01:31;;;;;;;26.90;14.90;;;;;;;-5.47;77.47;102159.83;105801;1290;69582;-75
2022/12/17 20:03:59;;;;;;;21.80;13.10;;;;;;;-5.50;77.54;102160.59;105630;1286;71749;-75
2022/12/17 20:06:29;;;;;;;25.70;15.60;;;;;;;-5.55;77.57;102163.79;105569;1290;61019;-75
2022/12/17 20:08:57;;;;;;;35.30;20.30;;;;;;;-5.58;77.61;102167.31;105845;1290;62518;-76
2022/12/17 20:11:33;;;;;;;36.70;20.90;;;;;;;-5.62;77.63;102165.16;105686;1291;73699;-75
2022/12/17 20:14:05;;;;;;;35.60;21.00;;;;;;;-5.66;77.59;102160.94;105692;1290;69851;-75
2022/12/17 20:16:35;;;;;;;36.20;21.40;;;;;;;-5.70;77.51;102162.61;105593;1293;71913;-75
2022/12/17 20:19:03;;;;;;;31.80;17.50;;;;;;;-5.75;77.62;102167.00;105766;1291;62062;-75
2022/12/17 20:21:29;;;;;;;28.10;16.30;;;;;;;-5.80;77.70;102172.80;105663;1290;60357;-75
2022/12/17 20:23:56;;;;;;;32.80;19.20;;;;;;;-5.84;78.03;102171.16;105748;1290;59267;-75
2022/12/17 20:26:24;;;;;;;27.00;16.30;;;;;;;-5.86;78.21;102179.30;105759;1291;59066;-76
2022/12/17 20:28:51;;;;;;;27.10;16.80;;;;;;;-5.87;78.17;102174.67;105533;1289;70433;-75
2022/12/17 20:31:17;;;;;;;30.30;17.40;;;;;;;-5.88;78.19;102175.73;105712;1287;60478;-75
2022/12/17 20:33:44;;;;;;;38.10;20.80;;;;;;;-5.91;78.19;102174.23;105669;1284;59312;-75
2022/12/17 20:36:16;;;;;;;36.90;22.00;;;;;;;-5.93;78.19;102171.71;105675;1294;58938;-75
2022/12/17 20:38:43;;;;;;;32.40;19.30;;;;;;;-5.98;78.27;102173.39;105688;1290;70857;-75
2022/12/17 20:41:18;;;;;;;32.50;19.20;;;;;;;-6.01;78.29;102176.39;105668;1291;71143;-75
2022/12/17 20:43:45;;;;;;;33.20;18.70;;;;;;;-6.06;78.47;102178.21;105779;1291;60957;-75
2022/12/17 20:46:12;;;;;;;30.70;19.60;;;;;;;-6.09;78.60;102173.63;105681;1290;59379;-75
2022/12/17 20:48:41;;;;;;;33.10;19.70;;;;;;;-6.11;78.64;102172.30;105696;1293;73645;-75
2022/12/17 20:51:10;;;;;;;31.80;19.40;;;;;;;-6.13;78.94;102175.44;105662;1292;70410;-75
2022/12/17 20:53:38;;;;;;;30.70;19.40;;;;;;;-6.16;78.73;102179.61;105596;1293;72609;-75
2022/12/17 20:56:11;;;;;;;34.20;19.40;;;;;;;-6.17;78.85;102182.91;105729;1287;60276;-75
2022/12/17 20:58:39;;;;;;;31.10;18.00;;;;;;;-6.19;79.02;102186.22;105749;1285;60508;-75
2022/12/17 21:01:11;;;;;;;31.90;18.80;;;;;;;-6.20;79.10;102195.20;105687;1284;74070;-75
2022/12/17 21:03:38;;;;;;;29.40;18.20;;;;;;;-6.21;78.96;102199.33;105588;1286;68915;-75
2022/12/17 21:06:15;;;;;;;29.00;17.70;;;;;;;-6.21;79.10;102202.61;105662;1291;71458;-75
2022/12/17 21:08:42;;;;;;;31.00;17.90;;;;;;;-6.21;79.27;102207.63;105670;1291;60839;-75
2022/12/17 21:11:17;;;;;;;30.20;17.70;;;;;;;-6.24;79.08;102209.90;105594;1289;58914;-75
2022/12/17 21:13:44;;;;;;;29.50;17.90;;;;;;;-6.26;79.16;102212.52;105657;1283;73497;-75
2022/12/17 21:16:14;;;;;;;29.30;18.40;;;;;;;-6.29;79.03;102217.07;105720;1294;68890;-75
2022/12/17 21:18:41;;;;;;;28.80;17.60;;;;;;;-6.33;79.15;102214.73;105525;1294;73273;-75
2022/12/17 21:21:11;;;;;;;27.40;17.50;;;;;;;-6.37;79.36;102217.73;105635;1279;62493;-75
2022/12/17 21:23:38;;;;;;;32.10;18.00;;;;;;;-6.40;79.25;102218.82;105782;1290;60585;-77
2022/12/17 21:26:06;;;;;;;33.00;20.40;;;;;;;-6.44;79.22;102218.73;105656;1292;72530;-75
2022/12/17 21:28:37;;;;;;;38.10;21.00;;;;;;;-6.44;79.79;102217.34;105830;1290;70199;-75
2022/12/17 21:31:04;;;;;;;32.40;20.00;;;;;;;-6.44;79.79;102222.16;105660;1292;72696;-75
2022/12/17 21:33:32;;;;;;;31.90;19.10;;;;;;;-6.43;79.82;102221.30;105729;1288;60058;-75
2022/12/17 21:36:04;;;;;;;34.10;20.40;;;;;;;-6.42;79.71;102225.58;105667;1291;60044;-75
2022/12/17 21:38:33;;;;;;;46.30;26.40;;;;;;;-6.42;79.72;102221.78;105676;1283;74599;-75
2022/12/17 21:41:05;;;;;;;38.60;24.80;;;;;;;-6.43;79.72;102221.29;105665;1292;71082;-75
2022/12/17 21:43:31;;;;;;;33.40;20.70;;;;;;;-6.46;79.38;102219.28;105565;1291;70449;-75
2022/12/17 21:45:58;;;;;;;41.20;23.80;;;;;;;-6.49;79.40;102222.60;105783;1284;59077;-75
2022/12/17 21:48:24;;;;;;;31.60;19.30;;;;;;;-6.53;79.53;102227.14;105811;1290;58907;-75
2022/12/17 21:50:51;;;;;;;47.80;27.90;;;;;;;-6.59;79.09;102232.75;105624;1290;59435;-75
2022/12/17 21:53:17;;;;;;;47.70;27.10;;;;;;;-6.65;78.87;102234.76;105830;1283;68627;-75
2022/12/17 21:55:44;;;;;;;66.90;35.30;;;;;;;-6.73;79.10;102237.48;105715;1287;71370;-75
2022/12/17 21:58:11;;;;;;;75.50;37.60;;;;;;;-6.79;79.55;102237.05;105716;1291;62362;-75
2022/12/17 22:00:38;;;;;;;53.30;28.70;;;;;;;-6.82;79.90;102238.31;105832;1290;59425;-75
2022/12/17 22:03:04;;;;;;;65.50;29.80;;;;;;;-6.83;80.30;102237.13;105774;1290;59115;-75
2022/12/17 22:05:31;;;;;;;70.80;33.10;;;;;;;-6.85;80.69;102236.98;105779;1290;58905;-75
2022/12/17 22:07:57;;;;;;;69.90;30.60;;;;;;;-6.87;80.92;102245.63;105706;1286;71862;-75
2022/12/17 22:10:25;;;;;;;65.80;29.80;;;;;;;-6.88;80.83;102245.13;105594;1293;60877;-75
2022/12/17 22:15:56;;;;;;;47.10;24.60;;;;;;;-6.84;81.35;102249.69;105775;1289;75163;-75
2022/12/17 22:18:23;;;;;;;43.00;23.80;;;;;;;-6.84;80.66;102256.23;105703;1291;69752;-75
2022/12/17 22:21:08;;;;;;;51.20;26.40;;;;;;;-6.84;80.82;102253.64;105587;1292;59979;-75
2022/12/17 22:23:34;;;;;;;47.60;25.20;;;;;;;-6.84;80.64;102252.79;105683;1288;60111;-75
2022/12/17 22:26:01;;;;;;;50.00;25.10;;;;;;;-6.85;80.53;102252.98;105572;1291;60368;-76
2022/12/17 22:28:28;;;;;;;43.30;23.50;;;;;;;-6.89;80.19;102253.05;105640;1291;73421;-77
2022/12/17 22:33:40;;;;;;;53.80;28.90;;;;;;;-6.96;80.42;102267.27;105756;1290;72113;-76
2022/12/17 22:36:28;;;;;;;54.20;28.60;;;;;;;-6.99;80.74;102266.27;105774;1291;61374;-75
2022/12/17 22:39:15;;;;;;;31.70;18.30;;;;;;;-6.99;80.69;102267.29;105713;1291;60166;-75
2022/12/17 22:45:07;;;;;;;29.80;17.10;;;;;;;-7.03;80.47;102268.73;105720;1286;71150;-75
2022/12/17 22:47:37;;;;;;;29.30;17.10;;;;;;;-7.05;80.63;102272.38;105584;1290;72125;-76
2022/12/17 22:50:04;;;;;;;28.60;16.50;;;;;;;-7.07;80.61;102272.41;105652;1285;60426;-75
2022/12/17 22:52:32;;;;;;;28.40;17.30;;;;;;;-7.08;80.74;102270.17;105634;1286;59000;-75
2022/12/17 22:54:59;;;;;;;26.60;16.70;;;;;;;-7.08;80.78;102269.84;105647;1294;74644;-75
2022/12/17 22:57:25;;;;;;;26.00;15.50;;;;;;;-7.08;80.83;102268.46;105674;1286;69898;-76
2022/12/17 23:00:33;;;;;;;27.80;16.90;;;;;;;-7.10;80.62;102266.44;105708;1289;71361;-76
2022/12/17 23:03:00;;;;;;;44.30;21.20;;;;;;;-7.14;80.53;102265.80;105696;1290;63161;-76
2022/12/17 23:05:27;;;;;;;33.70;18.40;;;;;;;-7.18;80.51;102266.40;105787;1297;60338;-76
2022/12/17 23:07:55;;;;;;;45.60;22.70;;;;;;;-7.20;80.75;102266.23;105583;1286;72662;-76
2022/12/17 23:10:23;;;;;;;40.10;21.50;;;;;;;-7.20;80.67;102268.98;105664;1292;69059;-75
2022/12/17 23:12:51;;;;;;;39.40;21.00;;;;;;;-7.22;80.33;102266.08;105837;1289;71445;-76
2022/12/17 23:15:24;;;;;;;36.80;19.60;;;;;;;-7.26;79.80;102261.51;105706;1292;60934;-76
2022/12/17 23:17:52;;;;;;;36.50;18.70;;;;;;;-7.34;79.93;102254.93;105672;1292;58856;-76
2022/12/17 23:20:19;;;;;;;41.30;21.00;;;;;;;-7.40;79.87;102256.20;105666;1290;74778;-76
2022/12/17 23:22:46;;;;;;;34.90;18.90;;;;;;;-7.45;79.89;102258.52;105686;1294;69751;-76
2022/12/17 23:25:13;;;;;;;33.00;17.60;;;;;;;-7.49;80.08;102258.58;105797;1283;71456;-74
2022/12/17 23:27:39;;;;;;;31.60;17.70;;;;;;;-7.53;80.08;102255.86;105603;1293;60988;-74
2022/12/17 23:30:07;;;;;;;30.70;17.40;;;;;;;-7.57;80.03;102259.02;105795;1290;59586;-75
2022/12/17 23:32:34;;;;;;;34.30;18.20;;;;;;;-7.63;80.13;102254.98;105688;1290;72078;-75
2022/12/17 23:35:00;;;;;;;33.30;17.80;;;;;;;-7.69;80.21;102251.61;105811;1291;71349;-75
2022/12/17 23:37:27;;;;;;;34.50;18.30;;;;;;;-7.75;80.04;102255.30;105769;1291;59058;-75
2022/12/17 23:39:53;;;;;;;52.20;25.30;;;;;;;-7.81;79.73;102256.75;105634;1289;61960;-75
2022/12/17 23:42:20;;;;;;;51.20;25.00;;;;;;;-7.90;79.67;102255.83;105793;1285;59251;-75
2022/12/17 23:44:46;;;;;;;47.10;22.90;;;;;;;-8.00;79.75;102255.25;105617;1283;58964;-75
2022/12/17 23:47:13;;;;;;;38.50;20.40;;;;;;;-8.05;80.19;102258.23;105755;1290;59888;-75
2022/12/17 23:49:39;;;;;;;43.00;20.30;;;;;;;-8.07;80.55;102257.38;105690;1291;59359;-75
2022/12/17 23:52:06;;;;;;;41.30;22.30;;;;;;;-8.11;80.44;102259.33;105588;1294;58998;-75
2022/12/17 23:54:34;;;;;;;36.40;19.50;;;;;;;-8.17;80.49;102263.51;105718;1290;61130;-75
2022/12/17 23:57:01;;;;;;;34.70;18.80;;;;;;;-8.23;80.53;102264.60;105594;1290;58866;-75
2022/12/17 23:59:27;;;;;;;32.00;18.20;;;;;;;-8.27;80.40;102263.11;105841;1283;59151;-75
